sensor_id;sensor_type;location;lat;lon;timestamp;pressure;altitude;pressure_sealevel;temperature;humidity
57048;BME280;42934;54.294;18.598;2024-01-06T00:02:08;100413.72;;;-2.61;77.68
57048;BME280;42934;54.294;18.598;2024-01-06T00:04:37;100412.66;;;-2.73;78.40
57048;BME280;42934;54.294;18.598;2024-01-06T00:07:06;100415.28;;;-2.69;78.48
57048;BME280;42934;54.294;18.598;2024-01-06T00:09:37;100410.88;;;-2.78;78.35
57048;BME280;42934;54.294;18.598;2024-01-06T00:12:07;100413.88;;;-2.52;78.16
57048;BME280;42934;54.294;18.598;2024-01-06T00:14:36;100412.22;;;-2.49;77.86
57048;BME280;42934;54.294;18.598;2024-01-06T00:17:05;100408.03;;;-2.41;77.30
57048;BME280;42934;54.294;18.598;2024-01-06T00:19:34;100406.34;;;-2.41;77.25
57048;BME280;42934;54.294;18.598;2024-01-06T00:22:04;100405.50;;;-2.40;77.16
57048;BME280;42934;54.294;18.598;2024-01-06T00:24:33;100397.75;;;-2.43;77.23
57048;BME280;42934;54.294;18.598;2024-01-06T00:27:04;100398.41;;;-2.53;77.48
57048;BME280;42934;54.294;18.598;2024-01-06T00:29:33;100405.59;;;-2.34;77.40
57048;BME280;42934;54.294;18.598;2024-01-06T00:32:02;100406.44;;;-2.35;77.03
57048;BME280;42934;54.294;18.598;2024-01-06T00:34:32;100415.78;;;-2.38;77.34
57048;BME280;42934;54.294;18.598;2024-01-06T00:37:01;100400.53;;;-2.29;77.30
57048;BME280;42934;54.294;18.598;2024-01-06T00:39:31;100404.84;;;-2.26;77.02
57048;BME280;42934;54.294;18.598;2024-01-06T00:42:00;100404.69;;;-2.36;76.78
57048;BME280;42934;54.294;18.598;2024-01-06T00:44:30;100405.09;;;-2.11;76.54
57048;BME280;42934;54.294;18.598;2024-01-06T00:46:59;100413.06;;;-1.93;76.05
57048;BME280;42934;54.294;18.598;2024-01-06T00:49:29;100419.88;;;-1.95;76.16
57048;BME280;42934;54.294;18.598;2024-01-06T00:51:58;100416.56;;;-1.88;76.14
57048;BME280;42934;54.294;18.598;2024-01-06T00:54:27;100408.97;;;-1.78;75.86
57048;BME280;42934;54.294;18.598;2024-01-06T00:56:57;100409.72;;;-1.87;75.56
57048;BME280;42934;54.294;18.598;2024-01-06T00:59:26;100423.31;;;-1.96;75.86
57048;BME280;42934;54.294;18.598;2024-01-06T01:01:56;100423.97;;;-2.09;76.96
57048;BME280;42934;54.294;18.598;2024-01-06T01:04:26;100420.66;;;-2.02;77.12
57048;BME280;42934;54.294;18.598;2024-01-06T01:06:55;100412.25;;;-1.90;76.76
57048;BME280;42934;54.294;18.598;2024-01-06T01:09:24;100420.06;;;-1.84;76.59
57048;BME280;42934;54.294;18.598;2024-01-06T01:11:53;100410.75;;;-1.74;76.54
57048;BME280;42934;54.294;18.598;2024-01-06T01:14:22;100406.25;;;-1.89;77.63
57048;BME280;42934;54.294;18.598;2024-01-06T01:16:51;100404.81;;;-1.69;77.09
57048;BME280;42934;54.294;18.598;2024-01-06T01:19:22;100404.09;;;-1.57;76.22
57048;BME280;42934;54.294;18.598;2024-01-06T01:21:51;100421.31;;;-1.54;75.94
57048;BME280;42934;54.294;18.598;2024-01-06T01:24:23;100417.94;;;-1.49;76.09
57048;BME280;42934;54.294;18.598;2024-01-06T01:26:52;100420.56;;;-1.44;75.63
57048;BME280;42934;54.294;18.598;2024-01-06T01:29:22;100419.78;;;-1.39;75.39
57048;BME280;42934;54.294;18.598;2024-01-06T01:31:51;100414.66;;;-1.37;75.14
57048;BME280;42934;54.294;18.598;2024-01-06T01:34:22;100413.81;;;-1.34;75.54
57048;BME280;42934;54.294;18.598;2024-01-06T01:36:51;100408.72;;;-1.31;75.03
57048;BME280;42934;54.294;18.598;2024-01-06T01:39:21;100419.03;;;-1.27;75.30
57048;BME280;42934;54.294;18.598;2024-01-06T01:41:50;100425.13;;;-1.23;75.24
57048;BME280;42934;54.294;18.598;2024-01-06T01:44:19;100430.31;;;-1.19;75.30
57048;BME280;42934;54.294;18.598;2024-01-06T01:46:48;100430.34;;;-1.16;75.06
57048;BME280;42934;54.294;18.598;2024-01-06T01:49:18;100427.81;;;-1.14;74.94
57048;BME280;42934;54.294;18.598;2024-01-06T01:51:50;100438.06;;;-1.16;75.36
57048;BME280;42934;54.294;18.598;2024-01-06T01:54:20;100436.38;;;-1.13;75.48
57048;BME280;42934;54.294;18.598;2024-01-06T01:56:49;100430.41;;;-1.11;75.61
57048;BME280;42934;54.294;18.598;2024-01-06T01:59:19;100435.56;;;-1.09;75.49
57048;BME280;42934;54.294;18.598;2024-01-06T02:01:48;100431.28;;;-1.09;75.47
57048;BME280;42934;54.294;18.598;2024-01-06T02:04:18;100439.06;;;-1.06;75.32
57048;BME280;42934;54.294;18.598;2024-01-06T02:06:48;100441.69;;;-1.01;75.49
57048;BME280;42934;54.294;18.598;2024-01-06T02:09:18;100441.72;;;-0.98;75.22
57048;BME280;42934;54.294;18.598;2024-01-06T02:11:47;100444.34;;;-0.94;75.43
57048;BME280;42934;54.294;18.598;2024-01-06T02:14:16;100443.50;;;-0.93;74.91
57048;BME280;42934;54.294;18.598;2024-01-06T02:16:45;100448.69;;;-0.89;75.21
57048;BME280;42934;54.294;18.598;2024-01-06T02:19:16;100450.44;;;-0.87;75.51
57048;BME280;42934;54.294;18.598;2024-01-06T02:21:51;100447.84;;;-0.85;75.62
57048;BME280;42934;54.294;18.598;2024-01-06T02:24:21;100439.31;;;-0.81;75.87
57048;BME280;42934;54.294;18.598;2024-01-06T02:26:50;100432.47;;;-0.78;75.57
57048;BME280;42934;54.294;18.598;2024-01-06T02:29:19;100435.94;;;-0.74;75.02
57048;BME280;42934;54.294;18.598;2024-01-06T02:31:48;100432.53;;;-0.72;75.70
57048;BME280;42934;54.294;18.598;2024-01-06T02:34:18;100430.81;;;-0.71;75.26
57048;BME280;42934;54.294;18.598;2024-01-06T02:36:48;100429.97;;;-0.70;75.51
57048;BME280;42934;54.294;18.598;2024-01-06T02:39:18;100435.97;;;-0.71;75.76
57048;BME280;42934;54.294;18.598;2024-01-06T02:41:47;100435.97;;;-0.71;75.58
57048;BME280;42934;54.294;18.598;2024-01-06T02:44:16;100429.94;;;-0.73;75.60
57048;BME280;42934;54.294;18.598;2024-01-06T02:46:45;100439.44;;;-0.71;75.75
57048;BME280;42934;54.294;18.598;2024-01-06T02:49:15;100430.84;;;-0.68;75.90
57048;BME280;42934;54.294;18.598;2024-01-06T02:51:44;100443.78;;;-0.63;75.38
57048;BME280;42934;54.294;18.598;2024-01-06T02:54:14;100442.09;;;-0.60;75.74
57048;BME280;42934;54.294;18.598;2024-01-06T02:56:44;100436.94;;;-0.61;76.26
57048;BME280;42934;54.294;18.598;2024-01-06T02:59:13;100433.50;;;-0.60;76.21
57048;BME280;42934;54.294;18.598;2024-01-06T03:01:42;100430.88;;;-0.62;75.85
57048;BME280;42934;54.294;18.598;2024-01-06T03:04:11;100433.50;;;-0.60;75.96
57048;BME280;42934;54.294;18.598;2024-01-06T03:06:40;100436.94;;;-0.60;76.25
57048;BME280;42934;54.294;18.598;2024-01-06T03:09:10;100435.25;;;-0.56;75.93
57048;BME280;42934;54.294;18.598;2024-01-06T03:11:40;100439.56;;;-0.54;75.98
57048;BME280;42934;54.294;18.598;2024-01-06T03:14:09;100434.41;;;-0.54;75.69
57048;BME280;42934;54.294;18.598;2024-01-06T03:16:38;100433.59;;;-0.50;76.19
57048;BME280;42934;54.294;18.598;2024-01-06T03:19:08;100445.69;;;-0.44;75.85
57048;BME280;42934;54.294;18.598;2024-01-06T03:21:37;100453.38;;;-0.49;75.70
57048;BME280;42934;54.294;18.598;2024-01-06T03:24:07;100448.06;;;-0.62;75.86
57048;BME280;42934;54.294;18.598;2024-01-06T03:26:37;100444.72;;;-0.54;75.49
57048;BME280;42934;54.294;18.598;2024-01-06T03:29:07;100449.94;;;-0.48;76.00
57048;BME280;42934;54.294;18.598;2024-01-06T03:31:36;100449.97;;;-0.46;76.01
57048;BME280;42934;54.294;18.598;2024-01-06T03:34:05;100443.97;;;-0.43;75.92
57048;BME280;42934;54.294;18.598;2024-01-06T03:36:36;100454.31;;;-0.40;75.52
57048;BME280;42934;54.294;18.598;2024-01-06T03:39:05;100457.75;;;-0.38;75.27
57048;BME280;42934;54.294;18.598;2024-01-06T03:41:35;100456.88;;;-0.39;75.45
57048;BME280;42934;54.294;18.598;2024-01-06T03:44:04;100464.66;;;-0.36;75.39
57048;BME280;42934;54.294;18.598;2024-01-06T03:46:35;100472.38;;;-0.36;75.39
57048;BME280;42934;54.294;18.598;2024-01-06T03:49:05;100475.88;;;-0.35;75.47
57048;BME280;42934;54.294;18.598;2024-01-06T03:51:34;100470.69;;;-0.34;75.17
57048;BME280;42934;54.294;18.598;2024-01-06T03:54:04;100474.13;;;-0.33;75.40
57048;BME280;42934;54.294;18.598;2024-01-06T03:56:33;100476.78;;;-0.29;75.01
57048;BME280;42934;54.294;18.598;2024-01-06T03:59:02;100484.50;;;-0.27;74.96
57048;BME280;42934;54.294;18.598;2024-01-06T04:01:31;100485.44;;;-0.24;75.20
57048;BME280;42934;54.294;18.598;2024-01-06T04:04:04;100487.16;;;-0.22;75.12
57048;BME280;42934;54.294;18.598;2024-01-06T04:06:34;100489.72;;;-0.21;75.55
57048;BME280;42934;54.294;18.598;2024-01-06T04:09:03;100485.44;;;-0.20;74.97
57048;BME280;42934;54.294;18.598;2024-01-06T04:11:33;100491.50;;;-0.17;74.91
57048;BME280;42934;54.294;18.598;2024-01-06T04:14:02;100488.06;;;-0.14;74.51
57048;BME280;42934;54.294;18.598;2024-01-06T04:16:31;100494.09;;;-0.14;74.41
57048;BME280;42934;54.294;18.598;2024-01-06T04:19:02;100497.53;;;-0.13;75.14
57048;BME280;42934;54.294;18.598;2024-01-06T04:21:34;100500.94;;;-0.19;74.31
57048;BME280;42934;54.294;18.598;2024-01-06T04:24:04;100494.91;;;-0.19;73.58
57048;BME280;42934;54.294;18.598;2024-01-06T04:26:33;100498.34;;;-0.20;72.80
57048;BME280;42934;54.294;18.598;2024-01-06T04:29:02;100501.84;;;-0.12;74.10
57048;BME280;42934;54.294;18.598;2024-01-06T04:31:31;100500.16;;;-0.10;74.38
57048;BME280;42934;54.294;18.598;2024-01-06T04:34:02;100506.16;;;-0.14;73.18
57048;BME280;42934;54.294;18.598;2024-01-06T04:36:32;100507.00;;;-0.12;73.41
57048;BME280;42934;54.294;18.598;2024-01-06T04:39:01;100502.75;;;-0.09;73.65
57048;BME280;42934;54.294;18.598;2024-01-06T04:41:30;100513.09;;;-0.04;73.60
57048;BME280;42934;54.294;18.598;2024-01-06T04:44:00;100508.81;;;-0.01;74.52
57048;BME280;42934;54.294;18.598;2024-01-06T04:46:29;100511.44;;;0.01;74.53
57048;BME280;42934;54.294;18.598;2024-01-06T04:48:58;100508.84;;;0.03;73.69
57048;BME280;42934;54.294;18.598;2024-01-06T04:51:29;100504.53;;;0.00;73.64
57048;BME280;42934;54.294;18.598;2024-01-06T04:53:59;100513.03;;;-0.10;72.81
57048;BME280;42934;54.294;18.598;2024-01-06T04:56:28;100513.97;;;-0.05;73.38
57048;BME280;42934;54.294;18.598;2024-01-06T04:59:01;100514.66;;;-0.23;71.44
57048;BME280;42934;54.294;18.598;2024-01-06T05:01:30;100506.81;;;-0.35;69.49
57048;BME280;42934;54.294;18.598;2024-01-06T05:04:00;100514.59;;;-0.31;70.06
57048;BME280;42934;54.294;18.598;2024-01-06T05:06:31;100513.69;;;-0.34;70.51
57048;BME280;42934;54.294;18.598;2024-01-06T05:09:00;100522.28;;;-0.34;70.58
57048;BME280;42934;54.294;18.598;2024-01-06T05:11:30;100519.78;;;-0.28;71.73
57048;BME280;42934;54.294;18.598;2024-01-06T05:13:59;100525.72;;;-0.33;70.40
57048;BME280;42934;54.294;18.598;2024-01-06T05:16:28;100527.56;;;-0.23;71.52
57048;BME280;42934;54.294;18.598;2024-01-06T05:18:58;100529.28;;;-0.22;71.13
57048;BME280;42934;54.294;18.598;2024-01-06T05:21:27;100523.22;;;-0.29;70.99
57048;BME280;42934;54.294;18.598;2024-01-06T05:23:59;100530.13;;;-0.26;70.28
57048;BME280;42934;54.294;18.598;2024-01-06T05:26:28;100534.34;;;-0.33;68.62
57048;BME280;42934;54.294;18.598;2024-01-06T05:28:57;100534.44;;;-0.24;70.81
57048;BME280;42934;54.294;18.598;2024-01-06T05:31:26;100551.66;;;-0.22;70.02
57048;BME280;42934;54.294;18.598;2024-01-06T05:33:55;100546.38;;;-0.35;68.51
57048;BME280;42934;54.294;18.598;2024-01-06T05:36:25;100547.28;;;-0.27;70.35
57048;BME280;42934;54.294;18.598;2024-01-06T05:38:54;100556.84;;;-0.19;70.99
57048;BME280;42934;54.294;18.598;2024-01-06T05:41:24;100555.16;;;-0.17;71.17
57048;BME280;42934;54.294;18.598;2024-01-06T05:43:54;100554.25;;;-0.18;70.93
57048;BME280;42934;54.294;18.598;2024-01-06T05:46:24;100557.59;;;-0.31;68.61
57048;BME280;42934;54.294;18.598;2024-01-06T05:48:53;100555.97;;;-0.20;70.25
57048;BME280;42934;54.294;18.598;2024-01-06T05:51:24;100562.91;;;-0.14;71.23
57048;BME280;42934;54.294;18.598;2024-01-06T05:53:53;100575.75;;;-0.20;70.38
57048;BME280;42934;54.294;18.598;2024-01-06T05:56:24;100578.44;;;-0.11;70.87
57048;BME280;42934;54.294;18.598;2024-01-06T05:58:55;100580.19;;;-0.09;70.87
57048;BME280;42934;54.294;18.598;2024-01-06T06:01:24;100579.28;;;-0.11;70.57
57048;BME280;42934;54.294;18.598;2024-01-06T06:03:53;100589.63;;;-0.06;70.84
57048;BME280;42934;54.294;18.598;2024-01-06T06:06:22;100580.19;;;-0.07;71.25
57048;BME280;42934;54.294;18.598;2024-01-06T06:08:52;100584.41;;;-0.12;70.93
57048;BME280;42934;54.294;18.598;2024-01-06T06:11:21;100580.13;;;-0.13;70.59
57048;BME280;42934;54.294;18.598;2024-01-06T06:13:52;100575.81;;;-0.13;70.20
57048;BME280;42934;54.294;18.598;2024-01-06T06:16:21;100586.16;;;-0.11;70.42
57048;BME280;42934;54.294;18.598;2024-01-06T06:18:50;100584.44;;;-0.09;70.59
57048;BME280;42934;54.294;18.598;2024-01-06T06:21:19;100586.06;;;-0.22;69.50
57048;BME280;42934;54.294;18.598;2024-01-06T06:23:49;100594.72;;;-0.15;70.44
57048;BME280;42934;54.294;18.598;2024-01-06T06:26:18;100594.78;;;-0.11;70.20
57048;BME280;42934;54.294;18.598;2024-01-06T06:28:47;100612.78;;;-0.15;69.35
57048;BME280;42934;54.294;18.598;2024-01-06T06:31:18;100613.69;;;-0.10;70.41
57048;BME280;42934;54.294;18.598;2024-01-06T06:33:47;100619.75;;;-0.07;70.20
57048;BME280;42934;54.294;18.598;2024-01-06T06:36:17;100615.44;;;-0.08;70.38
57048;BME280;42934;54.294;18.598;2024-01-06T06:38:46;100618.94;;;-0.03;70.67
57048;BME280;42934;54.294;18.598;2024-01-06T06:41:15;100618.06;;;-0.05;70.47
57048;BME280;42934;54.294;18.598;2024-01-06T06:43:44;100629.25;;;-0.06;70.42
57048;BME280;42934;54.294;18.598;2024-01-06T06:46:14;100618.91;;;-0.04;70.36
57048;BME280;42934;54.294;18.598;2024-01-06T06:48:44;100632.69;;;-0.04;70.51
57048;BME280;42934;54.294;18.598;2024-01-06T06:51:14;100619.69;;;-0.13;69.86
57048;BME280;42934;54.294;18.598;2024-01-06T06:53:43;100621.28;;;-0.26;68.35
57048;BME280;42934;54.294;18.598;2024-01-06T06:56:15;100620.34;;;-0.31;67.30
57048;BME280;42934;54.294;18.598;2024-01-06T06:58:45;100633.31;;;-0.25;68.63
57048;BME280;42934;54.294;18.598;2024-01-06T07:01:14;100637.59;;;-0.27;67.45
57048;BME280;42934;54.294;18.598;2024-01-06T07:03:45;100632.53;;;-0.20;69.05
57048;BME280;42934;54.294;18.598;2024-01-06T07:06:15;100639.47;;;-0.13;68.96
57048;BME280;42934;54.294;18.598;2024-01-06T07:08:44;100641.22;;;-0.11;69.04
57048;BME280;42934;54.294;18.598;2024-01-06T07:11:13;100636.56;;;-0.42;66.68
57048;BME280;42934;54.294;18.598;2024-01-06T07:13:46;100641.78;;;-0.36;67.96
57048;BME280;42934;54.294;18.598;2024-01-06T07:16:15;100639.22;;;-0.36;67.26
57048;BME280;42934;54.294;18.598;2024-01-06T07:18:48;100628.09;;;-0.32;68.31
57048;BME280;42934;54.294;18.598;2024-01-06T07:21:17;100635.94;;;-0.21;69.16
57048;BME280;42934;54.294;18.598;2024-01-06T07:23:46;100636.81;;;-0.18;68.53
57048;BME280;42934;54.294;18.598;2024-01-06T07:26:16;100640.38;;;-0.11;69.34
57048;BME280;42934;54.294;18.598;2024-01-06T07:28:45;100647.28;;;-0.09;68.30
57048;BME280;42934;54.294;18.598;2024-01-06T07:31:15;100640.41;;;-0.08;68.87
57048;BME280;42934;54.294;18.598;2024-01-06T07:33:46;100651.56;;;-0.06;69.25
57048;BME280;42934;54.294;18.598;2024-01-06T07:36:16;100649.88;;;-0.06;69.12
57048;BME280;42934;54.294;18.598;2024-01-06T07:38:45;100667.03;;;-0.11;68.05
57048;BME280;42934;54.294;18.598;2024-01-06T07:41:15;100659.22;;;-0.17;67.90
57048;BME280;42934;54.294;18.598;2024-01-06T07:43:44;100666.88;;;-0.26;67.21
57048;BME280;42934;54.294;18.598;2024-01-06T07:46:13;100667.66;;;-0.30;67.43
57048;BME280;42934;54.294;18.598;2024-01-06T07:48:46;100673.72;;;-0.27;67.60
57048;BME280;42934;54.294;18.598;2024-01-06T07:51:16;100680.63;;;-0.24;68.05
57048;BME280;42934;54.294;18.598;2024-01-06T07:53:45;100675.53;;;-0.19;68.29
57048;BME280;42934;54.294;18.598;2024-01-06T07:56:14;100667.84;;;-0.13;68.54
57048;BME280;42934;54.294;18.598;2024-01-06T07:58:43;100673.91;;;-0.10;68.69
57048;BME280;42934;54.294;18.598;2024-01-06T08:01:13;100686.88;;;-0.04;69.17
57048;BME280;42934;54.294;18.598;2024-01-06T08:03:42;100692.06;;;-0.01;69.13
57048;BME280;42934;54.294;18.598;2024-01-06T08:06:13;100687.81;;;0.02;68.77
57048;BME280;42934;54.294;18.598;2024-01-06T08:08:43;100701.56;;;0.01;69.10
57048;BME280;42934;54.294;18.598;2024-01-06T08:11:13;100700.78;;;0.06;69.50
57048;BME280;42934;54.294;18.598;2024-01-06T08:13:43;100714.44;;;-0.03;68.28
57048;BME280;42934;54.294;18.598;2024-01-06T08:16:12;100711.88;;;-0.01;68.47
57048;BME280;42934;54.294;18.598;2024-01-06T08:18:41;100704.97;;;-0.01;68.87
57048;BME280;42934;54.294;18.598;2024-01-06T08:21:12;100708.28;;;-0.12;67.11
57048;BME280;42934;54.294;18.598;2024-01-06T08:23:41;100714.25;;;-0.19;67.21
57048;BME280;42934;54.294;18.598;2024-01-06T08:26:11;100716.59;;;-0.38;65.86
57048;BME280;42934;54.294;18.598;2024-01-06T08:28:40;100720.97;;;-0.31;65.64
57048;BME280;42934;54.294;18.598;2024-01-06T08:31:09;100722.94;;;-0.11;67.84
57048;BME280;42934;54.294;18.598;2024-01-06T08:33:39;100721.97;;;-0.18;66.90
57048;BME280;42934;54.294;18.598;2024-01-06T08:36:08;100731.59;;;-0.08;67.60
57048;BME280;42934;54.294;18.598;2024-01-06T08:38:39;100739.09;;;-0.25;65.51
57048;BME280;42934;54.294;18.598;2024-01-06T08:41:08;100734.81;;;-0.26;66.32
57048;BME280;42934;54.294;18.598;2024-01-06T08:43:37;100734.78;;;-0.29;65.11
57048;BME280;42934;54.294;18.598;2024-01-06T08:46:07;100739.19;;;-0.18;66.22
57048;BME280;42934;54.294;18.598;2024-01-06T08:48:36;100737.38;;;-0.24;64.84
57048;BME280;42934;54.294;18.598;2024-01-06T08:51:05;100743.56;;;-0.14;66.05
57048;BME280;42934;54.294;18.598;2024-01-06T08:53:35;100743.63;;;-0.08;66.20
57048;BME280;42934;54.294;18.598;2024-01-06T08:56:06;100753.06;;;-0.10;66.09
57048;BME280;42934;54.294;18.598;2024-01-06T08:58:35;100739.31;;;-0.06;65.36
57048;BME280;42934;54.294;18.598;2024-01-06T09:01:04;100743.66;;;-0.05;65.99
57048;BME280;42934;54.294;18.598;2024-01-06T09:03:33;100749.69;;;-0.05;66.02
57048;BME280;42934;54.294;18.598;2024-01-06T09:06:03;100754.91;;;0.02;66.02
57048;BME280;42934;54.294;18.598;2024-01-06T09:08:33;100746.34;;;0.06;66.64
57048;BME280;42934;54.294;18.598;2024-01-06T09:11:02;100759.34;;;0.13;67.08
57048;BME280;42934;54.294;18.598;2024-01-06T09:13:32;100761.09;;;0.14;66.41
57048;BME280;42934;54.294;18.598;2024-01-06T09:16:02;100761.09;;;0.14;66.45
57048;BME280;42934;54.294;18.598;2024-01-06T09:18:31;100756.75;;;0.10;67.00
57048;BME280;42934;54.294;18.598;2024-01-06T09:21:01;100765.38;;;0.14;67.44
57048;BME280;42934;54.294;18.598;2024-01-06T09:23:30;100762.00;;;0.18;66.91
57048;BME280;42934;54.294;18.598;2024-01-06T09:26:00;100765.28;;;0.05;67.22
57048;BME280;42934;54.294;18.598;2024-01-06T09:28:32;100771.31;;;0.04;66.56
57048;BME280;42934;54.294;18.598;2024-01-06T09:31:01;100777.19;;;-0.08;65.77
57048;BME280;42934;54.294;18.598;2024-01-06T09:33:32;100778.22;;;0.08;67.11
57048;BME280;42934;54.294;18.598;2024-01-06T09:36:02;100780.91;;;0.17;67.36
57048;BME280;42934;54.294;18.598;2024-01-06T09:38:32;100782.72;;;0.26;67.50
57048;BME280;42934;54.294;18.598;2024-01-06T09:41:01;100780.13;;;0.22;67.50
57048;BME280;42934;54.294;18.598;2024-01-06T09:43:32;100790.59;;;0.35;67.09
57048;BME280;42934;54.294;18.598;2024-01-06T09:46:06;100793.19;;;0.38;67.19
57048;BME280;42934;54.294;18.598;2024-01-06T09:48:40;100789.00;;;0.44;67.30
57048;BME280;42934;54.294;18.598;2024-01-06T09:51:11;100797.59;;;0.47;67.09
57048;BME280;42934;54.294;18.598;2024-01-06T09:53:46;100799.19;;;0.35;66.58
57048;BME280;42934;54.294;18.598;2024-01-06T09:56:18;100790.34;;;0.13;65.00
57048;BME280;42934;54.294;18.598;2024-01-06T09:58:49;100794.66;;;0.14;66.21
57048;BME280;42934;54.294;18.598;2024-01-06T10:01:19;100810.00;;;0.01;65.16
57048;BME280;42934;54.294;18.598;2024-01-06T10:03:48;100810.84;;;0.03;66.39
57048;BME280;42934;54.294;18.598;2024-01-06T10:06:18;100809.34;;;0.20;66.34
57048;BME280;42934;54.294;18.598;2024-01-06T10:08:49;100812.00;;;0.26;67.04
57048;BME280;42934;54.294;18.598;2024-01-06T10:11:20;100813.72;;;0.24;66.91
57048;BME280;42934;54.294;18.598;2024-01-06T10:13:52;100805.94;;;0.21;66.67
57048;BME280;42934;54.294;18.598;2024-01-06T10:16:22;100809.41;;;0.26;66.10
57048;BME280;42934;54.294;18.598;2024-01-06T10:18:51;100811.31;;;0.39;66.67
57048;BME280;42934;54.294;18.598;2024-01-06T10:21:22;100817.28;;;0.34;65.92
57048;BME280;42934;54.294;18.598;2024-01-06T10:23:51;100822.38;;;0.29;65.76
57048;BME280;42934;54.294;18.598;2024-01-06T10:26:20;100813.78;;;0.30;66.00
57048;BME280;42934;54.294;18.598;2024-01-06T10:28:51;100812.03;;;0.29;65.97
57048;BME280;42934;54.294;18.598;2024-01-06T10:31:20;100819.03;;;0.36;67.12
57048;BME280;42934;54.294;18.598;2024-01-06T10:33:50;100813.91;;;0.41;66.31
57048;BME280;42934;54.294;18.598;2024-01-06T10:36:21;100811.34;;;0.44;66.55
57048;BME280;42934;54.294;18.598;2024-01-06T10:38:52;100814.75;;;0.38;66.72
57048;BME280;42934;54.294;18.598;2024-01-06T10:41:22;100802.47;;;0.20;66.60
57048;BME280;42934;54.294;18.598;2024-01-06T10:43:54;100808.59;;;0.27;66.10
57048;BME280;42934;54.294;18.598;2024-01-06T10:46:24;100815.53;;;0.33;66.46
57048;BME280;42934;54.294;18.598;2024-01-06T10:48:56;100820.72;;;0.34;67.74
57048;BME280;42934;54.294;18.598;2024-01-06T10:51:27;100819.03;;;0.36;67.83
57048;BME280;42934;54.294;18.598;2024-01-06T10:53:59;100824.22;;;0.39;67.81
57048;BME280;42934;54.294;18.598;2024-01-06T10:56:30;100817.44;;;0.49;67.48
57048;BME280;42934;54.294;18.598;2024-01-06T10:59:01;100829.63;;;0.59;67.05
57048;BME280;42934;54.294;18.598;2024-01-06T11:01:32;100821.91;;;0.62;67.06
57048;BME280;42934;54.294;18.598;2024-01-06T11:04:02;100828.00;;;0.71;67.48
57048;BME280;42934;54.294;18.598;2024-01-06T11:06:34;100824.59;;;0.76;66.92
57048;BME280;42934;54.294;18.598;2024-01-06T11:09:09;100826.38;;;0.77;67.03
57048;BME280;42934;54.294;18.598;2024-01-06T11:11:40;100835.91;;;0.83;67.36
57048;BME280;42934;54.294;18.598;2024-01-06T11:14:22;100827.22;;;0.78;66.81
57048;BME280;42934;54.294;18.598;2024-01-06T11:16:52;100828.91;;;0.76;67.23
57048;BME280;42934;54.294;18.598;2024-01-06T11:19:42;100828.72;;;0.57;66.62
57048;BME280;42934;54.294;18.598;2024-01-06T11:22:26;100826.34;;;0.74;67.67
57048;BME280;42934;54.294;18.598;2024-01-06T11:25:03;100832.41;;;0.81;67.68
57048;BME280;42934;54.294;18.598;2024-01-06T11:27:33;100830.75;;;0.87;67.09
57048;BME280;42934;54.294;18.598;2024-01-06T11:30:06;100820.44;;;0.90;67.77
57048;BME280;42934;54.294;18.598;2024-01-06T11:32:37;100825.66;;;0.94;67.08
57048;BME280;42934;54.294;18.598;2024-01-06T11:35:11;100829.97;;;0.96;67.89
57048;BME280;42934;54.294;18.598;2024-01-06T11:37:57;100828.28;;;0.98;67.47
57048;BME280;42934;54.294;18.598;2024-01-06T11:40:33;100834.34;;;1.00;68.10
57048;BME280;42934;54.294;18.598;2024-01-06T11:43:06;100834.34;;;1.00;67.79
57048;BME280;42934;54.294;18.598;2024-01-06T11:45:38;100817.97;;;1.03;68.03
57048;BME280;42934;54.294;18.598;2024-01-06T11:48:11;100806.75;;;1.02;67.84
57048;BME280;42934;54.294;18.598;2024-01-06T11:50:41;100813.69;;;1.05;67.69
57048;BME280;42934;54.294;18.598;2024-01-06T11:53:11;100811.13;;;1.06;67.98
57048;BME280;42934;54.294;18.598;2024-01-06T11:55:40;100813.72;;;1.06;68.40
57048;BME280;42934;54.294;18.598;2024-01-06T11:58:10;100809.28;;;0.92;67.29
57048;BME280;42934;54.294;18.598;2024-01-06T12:00:41;100810.91;;;0.85;67.41
57048;BME280;42934;54.294;18.598;2024-01-06T12:03:16;100827.28;;;0.84;66.31
57048;BME280;42934;54.294;18.598;2024-01-06T12:05:45;100825.53;;;0.81;66.52
57048;BME280;42934;54.294;18.598;2024-01-06T12:08:20;100838.41;;;0.78;66.93
57048;BME280;42934;54.294;18.598;2024-01-06T12:10:49;100835.91;;;0.83;67.44
57048;BME280;42934;54.294;18.598;2024-01-06T12:13:20;100837.53;;;0.75;67.23
57048;BME280;42934;54.294;18.598;2024-01-06T12:15:51;100839.09;;;0.60;66.72
57048;BME280;42934;54.294;18.598;2024-01-06T12:18:21;100838.28;;;0.64;67.03
57048;BME280;42934;54.294;18.598;2024-01-06T12:20:50;100830.56;;;0.69;66.67
57048;BME280;42934;54.294;18.598;2024-01-06T12:23:27;100837.47;;;0.68;66.89
57048;BME280;42934;54.294;18.598;2024-01-06T12:25:56;100839.97;;;0.59;66.98
57048;BME280;42934;54.294;18.598;2024-01-06T12:28:27;100845.16;;;0.64;67.35
57048;BME280;42934;54.294;18.598;2024-01-06T12:30:58;100840.84;;;0.63;67.48
57048;BME280;42934;54.294;18.598;2024-01-06T12:33:27;100834.84;;;0.65;66.91
57048;BME280;42934;54.294;18.598;2024-01-06T12:35:56;100833.84;;;0.53;66.64
57048;BME280;42934;54.294;18.598;2024-01-06T12:38:34;100824.44;;;0.56;67.18
57048;BME280;42934;54.294;18.598;2024-01-06T12:41:04;100834.00;;;0.65;67.18
57048;BME280;42934;54.294;18.598;2024-01-06T12:43:34;100840.81;;;0.60;67.34
57048;BME280;42934;54.294;18.598;2024-01-06T12:46:07;100838.31;;;0.67;68.18
57048;BME280;42934;54.294;18.598;2024-01-06T12:48:38;100836.41;;;0.53;68.18
57048;BME280;42934;54.294;18.598;2024-01-06T12:51:07;100838.94;;;0.45;68.69
57048;BME280;42934;54.294;18.598;2024-01-06T12:53:36;100846.66;;;0.43;68.26
57048;BME280;42934;54.294;18.598;2024-01-06T12:56:06;100847.56;;;0.49;68.90
57048;BME280;42934;54.294;18.598;2024-01-06T12:58:36;100854.59;;;0.60;68.58